sensor_id;sensor_type;location;lat;lon;timestamp;pressure;altitude;pressure_sealevel;temperature;humidity
19553;BME280;9420;50.876;7.012;2023-02-22T00:01:33;101086.19;;;15.54;100.00
19553;BME280;9420;50.876;7.012;2023-02-22T00:04:05;101086.09;;;15.16;100.00
19553;BME280;9420;50.876;7.012;2023-02-22T00:06:33;101093.22;;;15.35;100.00
19553;BME280;9420;50.876;7.012;2023-02-22T00:09:00;101094.03;;;15.57;100.00
19553;BME280;9420;50.876;7.012;2023-02-22T00:11:28;101082.06;;;15.67;100.00
19553;BME280;9420;50.876;7.012;2023-02-22T00:13:56;101079.41;;;15.67;100.00
19553;BME280;9420;50.876;7.012;2023-02-22T00:16:25;101078.50;;;15.68;100.00
19553;BME280;9420;50.876;7.012;2023-02-22T00:18:52;101065.31;;;15.47;100.00
19553;BME280;9420;50.876;7.012;2023-02-22T00:21:21;101073.03;;;15.71;100.00
19553;BME280;9420;50.876;7.012;2023-02-22T00:23:49;101065.44;;;15.82;100.00
19553;BME280;9420;50.876;7.012;2023-02-22T00:26:21;101068.56;;;15.53;100.00
19553;BME280;9420;50.876;7.012;2023-02-22T00:28:50;101069.72;;;15.66;100.00
19553;BME280;9420;50.876;7.012;2023-02-22T00:31:19;101061.59;;;15.89;100.00
19553;BME280;9420;50.876;7.012;2023-02-22T00:33:46;101059.41;;;15.79;100.00
19553;BME280;9420;50.876;7.012;2023-02-22T00:36:14;101051.44;;;15.60;100.00
19553;BME280;9420;50.876;7.012;2023-02-22T00:38:42;101054.34;;;15.54;100.00
19553;BME280;9420;50.876;7.012;2023-02-22T00:41:10;101047.94;;;15.78;100.00
19553;BME280;9420;50.876;7.012;2023-02-22T00:43:37;101056.34;;;15.49;100.00
19553;BME280;9420;50.876;7.012;2023-02-22T00:46:04;101049.97;;;15.53;100.00
19553;BME280;9420;50.876;7.012;2023-02-22T00:48:32;101054.13;;;15.39;100.00
19553;BME280;9420;50.876;7.012;2023-02-22T00:51:00;101048.78;;;15.60;100.00
19553;BME280;9420;50.876;7.012;2023-02-22T00:53:28;101042.41;;;15.44;100.00
19553;BME280;9420;50.876;7.012;2023-02-22T00:55:56;101048.06;;;15.75;100.00
19553;BME280;9420;50.876;7.012;2023-02-22T00:58:24;101043.19;;;15.66;100.00
19553;BME280;9420;50.876;7.012;2023-02-22T01:00:51;101041.72;;;15.59;100.00
19553;BME280;9420;50.876;7.012;2023-02-22T01:03:20;101036.81;;;15.50;100.00
19553;BME280;9420;50.876;7.012;2023-02-22T01:05:47;101034.53;;;15.43;100.00
19553;BME280;9420;50.876;7.012;2023-02-22T01:08:16;101039.09;;;15.39;100.00
19553;BME280;9420;50.876;7.012;2023-02-22T01:10:44;101032.63;;;15.65;100.00
19553;BME280;9420;50.876;7.012;2023-02-22T01:13:14;101040.81;;;15.60;100.00
19553;BME280;9420;50.876;7.012;2023-02-22T01:15:43;101032.47;;;15.49;100.00
19553;BME280;9420;50.876;7.012;2023-02-22T01:18:11;101023.47;;;15.90;100.00
19553;BME280;9420;50.876;7.012;2023-02-22T01:20:42;101021.69;;;15.91;100.00
19553;BME280;9420;50.876;7.012;2023-02-22T01:23:13;101018.56;;;15.63;100.00
19553;BME280;9420;50.876;7.012;2023-02-22T01:25:42;101020.09;;;15.48;100.00
19553;BME280;9420;50.876;7.012;2023-02-22T01:28:09;101008.47;;;15.89;100.00
19553;BME280;9420;50.876;7.012;2023-02-22T01:30:39;101019.81;;;15.74;100.00
19553;BME280;9420;50.876;7.012;2023-02-22T01:33:07;101013.78;;;15.89;100.00
19553;BME280;9420;50.876;7.012;2023-02-22T01:35:36;101011.75;;;15.76;100.00
19553;BME280;9420;50.876;7.012;2023-02-22T01:38:05;101004.44;;;16.00;100.00
19553;BME280;9420;50.876;7.012;2023-02-22T01:40:35;101009.19;;;15.74;100.00
19553;BME280;9420;50.876;7.012;2023-02-22T01:43:16;101005.50;;;15.38;100.00
19553;BME280;9420;50.876;7.012;2023-02-22T01:45:53;101001.41;;;15.51;100.00
19553;BME280;9420;50.876;7.012;2023-02-22T01:48:28;100992.81;;;15.83;100.00
19553;BME280;9420;50.876;7.012;2023-02-22T01:50:59;100993.53;;;15.50;100.00
19553;BME280;9420;50.876;7.012;2023-02-22T01:53:32;100994.97;;;15.75;100.00
19553;BME280;9420;50.876;7.012;2023-02-22T01:56:02;101000.41;;;15.54;100.00
19553;BME280;9420;50.876;7.012;2023-02-22T01:58:34;101000.06;;;15.61;100.00
19553;BME280;9420;50.876;7.012;2023-02-22T02:01:04;100987.63;;;15.43;100.00
19553;BME280;9420;50.876;7.012;2023-02-22T02:03:37;100996.63;;;15.39;100.00
19553;BME280;9420;50.876;7.012;2023-02-22T02:06:09;100983.97;;;15.26;100.00
19553;BME280;9420;50.876;7.012;2023-02-22T02:08:49;100987.00;;;15.37;100.00
19553;BME280;9420;50.876;7.012;2023-02-22T02:11:22;100981.19;;;15.29;100.00
19553;BME280;9420;50.876;7.012;2023-02-22T02:13:51;100989.59;;;14.98;100.00
19553;BME280;9420;50.876;7.012;2023-02-22T02:16:24;100984.44;;;15.15;100.00
19553;BME280;9420;50.876;7.012;2023-02-22T02:18:54;100980.31;;;15.48;100.00
19553;BME280;9420;50.876;7.012;2023-02-22T02:25:02;100976.53;;;15.34;100.00
19553;BME280;9420;50.876;7.012;2023-02-22T02:28:07;100972.38;;;15.28;100.00
19553;BME280;9420;50.876;7.012;2023-02-22T02:31:23;100970.78;;;15.24;100.00
19553;BME280;9420;50.876;7.012;2023-02-22T02:33:59;100968.69;;;15.12;100.00
19553;BME280;9420;50.876;7.012;2023-02-22T02:36:36;100969.31;;;15.37;100.00
19553;BME280;9420;50.876;7.012;2023-02-22T02:39:18;100959.94;;;15.10;100.00
19553;BME280;9420;50.876;7.012;2023-02-22T02:41:51;100959.91;;;14.90;100.00
19553;BME280;9420;50.876;7.012;2023-02-22T02:44:26;100964.00;;;15.17;100.00
19553;BME280;9420;50.876;7.012;2023-02-22T02:46:58;100957.63;;;15.41;100.00
19553;BME280;9420;50.876;7.012;2023-02-22T02:49:33;100958.59;;;15.20;100.00
19553;BME280;9420;50.876;7.012;2023-02-22T02:52:03;100950.50;;;15.03;100.00
19553;BME280;9420;50.876;7.012;2023-02-22T02:54:32;100949.00;;;15.36;100.00
19553;BME280;9420;50.876;7.012;2023-02-22T02:57:02;100951.38;;;15.03;100.00
19553;BME280;9420;50.876;7.012;2023-02-22T02:59:33;100944.00;;;14.90;100.00
19553;BME280;9420;50.876;7.012;2023-02-22T03:02:33;100940.97;;;14.79;100.00
19553;BME280;9420;50.876;7.012;2023-02-22T03:05:34;100949.81;;;14.38;100.00
19553;BME280;9420;50.876;7.012;2023-02-22T03:08:13;100952.25;;;14.84;100.00
19553;BME280;9420;50.876;7.012;2023-02-22T03:10:57;100945.81;;;14.49;100.00
19553;BME280;9420;50.876;7.012;2023-02-22T03:13:34;100945.22;;;15.03;100.00
19553;BME280;9420;50.876;7.012;2023-02-22T03:16:15;100940.66;;;15.25;100.00
19553;BME280;9420;50.876;7.012;2023-02-22T03:18:52;100950.88;;;14.54;100.00
19553;BME280;9420;50.876;7.012;2023-02-22T03:21:30;100945.59;;;14.94;100.00
19553;BME280;9420;50.876;7.012;2023-02-22T03:24:05;100950.75;;;14.57;100.00
19553;BME280;9420;50.876;7.012;2023-02-22T03:26:41;100955.16;;;14.78;100.00
19553;BME280;9420;50.876;7.012;2023-02-22T03:29:12;100950.22;;;15.09;100.00
19553;BME280;9420;50.876;7.012;2023-02-22T03:31:47;100943.94;;;14.71;100.00
19553;BME280;9420;50.876;7.012;2023-02-22T03:34:21;100945.59;;;14.94;100.00
19553;BME280;9420;50.876;7.012;2023-02-22T03:36:57;100945.47;;;14.97;100.00
19553;BME280;9420;50.876;7.012;2023-02-22T03:39:28;100934.66;;;15.40;100.00
19553;BME280;9420;50.876;7.012;2023-02-22T03:42:03;100937.50;;;15.17;100.00
19553;BME280;9420;50.876;7.012;2023-02-22T03:44:36;100939.38;;;15.34;100.00
19553;BME280;9420;50.876;7.012;2023-02-22T03:47:10;100943.22;;;14.68;100.00
19553;BME280;9420;50.876;7.012;2023-02-22T03:49:45;100934.97;;;14.54;100.00
19553;BME280;9420;50.876;7.012;2023-02-22T03:52:17;100928.66;;;14.78;100.00
19553;BME280;9420;50.876;7.012;2023-02-22T03:54:44;100938.84;;;14.67;100.00
19553;BME280;9420;50.876;7.012;2023-02-22T03:57:19;100939.25;;;14.78;100.00
19553;BME280;9420;50.876;7.012;2023-02-22T03:59:48;100942.03;;;14.75;100.00
19553;BME280;9420;50.876;7.012;2023-02-22T04:02:15;100940.44;;;14.91;100.00
19553;BME280;9420;50.876;7.012;2023-02-22T04:04:44;100938.25;;;14.80;100.00
19553;BME280;9420;50.876;7.012;2023-02-22T04:07:11;100933.22;;;14.74;100.00
19553;BME280;9420;50.876;7.012;2023-02-22T04:09:40;100939.56;;;14.50;100.00
19553;BME280;9420;50.876;7.012;2023-02-22T04:12:09;100931.25;;;14.38;100.00
19553;BME280;9420;50.876;7.012;2023-02-22T04:14:38;100940.81;;;14.42;100.00
19553;BME280;9420;50.876;7.012;2023-02-22T04:17:05;100937.81;;;14.07;100.00
19553;BME280;9420;50.876;7.012;2023-02-22T04:19:32;100934.16;;;14.31;100.00
19553;BME280;9420;50.876;7.012;2023-02-22T04:22:00;100939.34;;;14.35;100.00
19553;BME280;9420;50.876;7.012;2023-02-22T04:24:27;100930.09;;;14.45;100.00
19553;BME280;9420;50.876;7.012;2023-02-22T04:26:56;100921.34;;;14.43;100.00
19553;BME280;9420;50.876;7.012;2023-02-22T04:29:23;100917.41;;;14.09;100.00
19553;BME280;9420;50.876;7.012;2023-02-22T04:31:50;100925.28;;;13.89;100.00
19553;BME280;9420;50.876;7.012;2023-02-22T04:34:17;100913.47;;;14.19;100.00
19553;BME280;9420;50.876;7.012;2023-02-22T04:36:44;100909.44;;;14.32;100.00
19553;BME280;9420;50.876;7.012;2023-02-22T04:39:11;100910.63;;;13.59;100.00
19553;BME280;9420;50.876;7.012;2023-02-22T04:41:39;100927.19;;;13.41;100.00
19553;BME280;9420;50.876;7.012;2023-02-22T04:44:08;100919.72;;;13.52;100.00
19553;BME280;9420;50.876;7.012;2023-02-22T04:46:35;100911.53;;;13.58;100.00
19553;BME280;9420;50.876;7.012;2023-02-22T04:49:02;100906.94;;;13.63;100.00
19553;BME280;9420;50.876;7.012;2023-02-22T04:51:30;100919.16;;;13.44;100.00
19553;BME280;9420;50.876;7.012;2023-02-22T04:53:57;100915.53;;;13.68;100.00
19553;BME280;9420;50.876;7.012;2023-02-22T04:56:24;100924.53;;;13.18;100.00
19553;BME280;9420;50.876;7.012;2023-02-22T04:58:51;100925.81;;;13.31;100.00
19553;BME280;9420;50.876;7.012;2023-02-22T05:01:20;100924.66;;;13.15;100.00
19553;BME280;9420;50.876;7.012;2023-02-22T05:03:48;100931.31;;;13.25;100.00
19553;BME280;9420;50.876;7.012;2023-02-22T05:06:15;100916.72;;;13.38;100.00
19553;BME280;9420;50.876;7.012;2023-02-22T05:08:42;100913.28;;;13.36;100.00
19553;BME280;9420;50.876;7.012;2023-02-22T05:11:09;100910.88;;;13.53;100.00
19553;BME280;9420;50.876;7.012;2023-02-22T05:13:36;100914.66;;;13.23;100.00
19553;BME280;9420;50.876;7.012;2023-02-22T05:16:04;100906.16;;;13.38;100.00
19553;BME280;9420;50.876;7.012;2023-02-22T05:18:33;100907.75;;;13.19;100.00
19553;BME280;9420;50.876;7.012;2023-02-22T05:21:00;100900.16;;;13.10;100.00
19553;BME280;9420;50.876;7.012;2023-02-22T05:23:27;100896.25;;;13.20;100.00
19553;BME280;9420;50.876;7.012;2023-02-22T05:25:54;100904.47;;;13.12;100.00
19553;BME280;9420;50.876;7.012;2023-02-22T05:28:21;100900.09;;;13.34;100.00
19553;BME280;9420;50.876;7.012;2023-02-22T05:30:49;100895.00;;;13.53;100.00
19553;BME280;9420;50.876;7.012;2023-02-22T05:33:16;100895.19;;;13.25;100.00
19553;BME280;9420;50.876;7.012;2023-02-22T05:35:45;100886.94;;;13.33;100.00
19553;BME280;9420;50.876;7.012;2023-02-22T05:38:15;100894.78;;;13.13;100.00
19553;BME280;9420;50.876;7.012;2023-02-22T05:40:43;100892.06;;;13.14;100.00
19553;BME280;9420;50.876;7.012;2023-02-22T05:43:12;100892.81;;;13.18;100.00
19553;BME280;9420;50.876;7.012;2023-02-22T05:45:40;100896.25;;;12.95;100.00
19553;BME280;9420;50.876;7.012;2023-02-22T05:48:08;100888.19;;;13.00;100.00
19553;BME280;9420;50.876;7.012;2023-02-22T05:50:35;100886.63;;;12.69;100.00
19553;BME280;9420;50.876;7.012;2023-02-22T05:53:03;100883.25;;;12.41;100.00
19553;BME280;9420;50.876;7.012;2023-02-22T05:55:31;100878.50;;;12.99;100.00
19553;BME280;9420;50.876;7.012;2023-02-22T05:57:58;100882.06;;;12.74;100.00
19553;BME280;9420;50.876;7.012;2023-02-22T06:00:29;100881.38;;;12.93;100.00
19553;BME280;9420;50.876;7.012;2023-02-22T06:03:00;100877.59;;;13.00;100.00
19553;BME280;9420;50.876;7.012;2023-02-22T06:05:27;100869.56;;;12.80;100.00
19553;BME280;9420;50.876;7.012;2023-02-22T06:07:56;100878.50;;;12.75;100.00
19553;BME280;9420;50.876;7.012;2023-02-22T06:10:25;100877.94;;;12.91;100.00
19553;BME280;9420;50.876;7.012;2023-02-22T06:12:53;100873.53;;;12.66;100.00
19553;BME280;9420;50.876;7.012;2023-02-22T06:15:23;100870.69;;;12.72;100.00
19553;BME280;9420;50.876;7.012;2023-02-22T06:17:51;100869.31;;;12.86;100.00
19553;BME280;9420;50.876;7.012;2023-02-22T06:20:22;100873.09;;;12.78;100.00
19553;BME280;9420;50.876;7.012;2023-02-22T06:22:51;100874.63;;;12.86;100.00
19553;BME280;9420;50.876;7.012;2023-02-22T06:25:22;100867.81;;;12.78;100.00
19553;BME280;9420;50.876;7.012;2023-02-22T06:27:51;100865.31;;;12.75;100.00
19553;BME280;9420;50.876;7.012;2023-02-22T06:30:22;100874.84;;;12.80;100.00
19553;BME280;9420;50.876;7.012;2023-02-22T06:32:49;100869.59;;;12.78;100.00
19553;BME280;9420;50.876;7.012;2023-02-22T06:35:17;100869.91;;;12.94;100.00
19553;BME280;9420;50.876;7.012;2023-02-22T06:37:44;100872.66;;;12.91;100.00
19553;BME280;9420;50.876;7.012;2023-02-22T06:40:13;100869.31;;;12.86;100.00
19553;BME280;9420;50.876;7.012;2023-02-22T06:42:40;100869.91;;;12.94;100.00
19553;BME280;9420;50.876;7.012;2023-02-22T06:45:09;100877.13;;;12.89;100.00
19553;BME280;9420;50.876;7.012;2023-02-22T06:47:38;100872.56;;;12.94;100.00
19553;BME280;9420;50.876;7.012;2023-02-22T06:50:09;100870.41;;;12.80;100.00
19553;BME280;9420;50.876;7.012;2023-02-22T06:52:43;100873.25;;;13.22;100.00
19553;BME280;9420;50.876;7.012;2023-02-22T06:55:17;100879.16;;;13.07;100.00
19553;BME280;9420;50.876;7.012;2023-02-22T06:57:44;100877.50;;;13.03;100.00
19553;BME280;9420;50.876;7.012;2023-02-22T07:00:15;100874.31;;;12.93;100.00
19553;BME280;9420;50.876;7.012;2023-02-22T07:02:44;100877.41;;;13.06;100.00
19553;BME280;9420;50.876;7.012;2023-02-22T07:05:11;100880.75;;;13.11;100.00
19553;BME280;9420;50.876;7.012;2023-02-22T07:07:39;100879.16;;;13.07;100.00
19553;BME280;9420;50.876;7.012;2023-02-22T07:10:08;100887.53;;;13.18;100.00
19553;BME280;9420;50.876;7.012;2023-02-22T07:12:41;100876.94;;;13.41;100.00
19553;BME280;9420;50.876;7.012;2023-02-22T07:15:08;100883.31;;;13.59;100.00
19553;BME280;9420;50.876;7.012;2023-02-22T07:17:37;100873.34;;;13.65;100.00
19553;BME280;9420;50.876;7.012;2023-02-22T07:20:07;100879.03;;;13.76;100.00
19553;BME280;9420;50.876;7.012;2023-02-22T07:22:36;100866.56;;;13.80;100.00
19553;BME280;9420;50.876;7.012;2023-02-22T07:25:05;100870.81;;;13.84;100.00
19553;BME280;9420;50.876;7.012;2023-02-22T07:27:36;100873.09;;;13.93;100.00
19553;BME280;9420;50.876;7.012;2023-02-22T07:30:05;100865.09;;;13.73;100.00
19553;BME280;9420;50.876;7.012;2023-02-22T07:32:32;100869.03;;;13.84;100.00
19553;BME280;9420;50.876;7.012;2023-02-22T07:35:01;100868.91;;;13.87;100.00
19553;BME280;9420;50.876;7.012;2023-02-22T07:37:28;100864.91;;;13.99;100.00
19553;BME280;9420;50.876;7.012;2023-02-22T07:39:56;100866.34;;;14.27;100.00
19553;BME280;9420;50.876;7.012;2023-02-22T07:42:23;100866.19;;;14.32;100.00
19553;BME280;9420;50.876;7.012;2023-02-22T07:44:50;100868.22;;;14.46;100.00
19553;BME280;9420;50.876;7.012;2023-02-22T07:47:17;100864.78;;;14.44;100.00
19553;BME280;9420;50.876;7.012;2023-02-22T07:49:45;100870.47;;;14.55;100.00
19553;BME280;9420;50.876;7.012;2023-02-22T07:52:14;100862.28;;;14.41;100.00
19553;BME280;9420;50.876;7.012;2023-02-22T07:54:45;100861.47;;;14.39;100.00
19553;BME280;9420;50.876;7.012;2023-02-22T07:57:14;100859.91;;;14.35;100.00
19553;BME280;9420;50.876;7.012;2023-02-22T07:59:44;100851.53;;;14.64;100.00
19553;BME280;9420;50.876;7.012;2023-02-22T08:02:16;100844.47;;;14.22;100.00
19553;BME280;9420;50.876;7.012;2023-02-22T08:04:43;100844.78;;;14.57;100.00
19553;BME280;9420;50.876;7.012;2023-02-22T08:07:10;100848.50;;;14.53;100.00
19553;BME280;9420;50.876;7.012;2023-02-22T08:09:39;100851.25;;;14.50;100.00
19553;BME280;9420;50.876;7.012;2023-02-22T08:12:06;100847.47;;;14.75;100.00
19553;BME280;9420;50.876;7.012;2023-02-22T08:14:33;100836.25;;;14.89;100.00
19553;BME280;9420;50.876;7.012;2023-02-22T08:17:00;100835.38;;;14.70;100.00
19553;BME280;9420;50.876;7.012;2023-02-22T08:19:28;100835.72;;;14.81;100.00
19553;BME280;9420;50.876;7.012;2023-02-22T08:21:55;100834.03;;;14.80;100.00
19553;BME280;9420;50.876;7.012;2023-02-22T08:24:22;100831.97;;;14.66;100.00
19553;BME280;9420;50.876;7.012;2023-02-22T08:26:51;100825.50;;;14.92;100.00
19553;BME280;9420;50.876;7.012;2023-02-22T08:29:18;100825.97;;;15.20;100.00
19553;BME280;9420;50.876;7.012;2023-02-22T08:31:49;100832.94;;;14.84;100.00
19553;BME280;9420;50.876;7.012;2023-02-22T08:34:18;100820.72;;;15.00;100.00
19553;BME280;9420;50.876;7.012;2023-02-22T08:36:45;100824.09;;;15.22;100.00
19553;BME280;9420;50.876;7.012;2023-02-22T08:39:14;100828.06;;;14.75;100.00
19553;BME280;9420;50.876;7.012;2023-02-22T08:41:41;100827.53;;;15.24;100.00
19553;BME280;9420;50.876;7.012;2023-02-22T08:44:09;100829.41;;;15.41;100.00
19553;BME280;9420;50.876;7.012;2023-02-22T08:46:36;100821.44;;;15.41;100.00
19553;BME280;9420;50.876;7.012;2023-02-22T08:49:05;100815.56;;;15.88;100.00
19553;BME280;9420;50.876;7.012;2023-02-22T08:51:34;100813.75;;;15.72;100.00
19553;BME280;9420;50.876;7.012;2023-02-22T08:54:02;100811.00;;;15.73;100.00
19553;BME280;9420;50.876;7.012;2023-02-22T08:56:31;100812.59;;;15.95;100.00
19553;BME280;9420;50.876;7.012;2023-02-22T08:58:58;100811.38;;;16.02;100.00
19553;BME280;9420;50.876;7.012;2023-02-22T09:01:27;100815.06;;;15.07;100.00
19553;BME280;9420;50.876;7.012;2023-02-22T09:03:55;100803.00;;;15.75;100.00
19553;BME280;9420;50.876;7.012;2023-02-22T09:06:22;100798.03;;;15.67;100.00
19553;BME280;9420;50.876;7.012;2023-02-22T09:08:49;100798.16;;;15.83;100.00
19553;BME280;9420;50.876;7.012;2023-02-22T09:11:16;100794.00;;;15.95;100.00
19553;BME280;9420;50.876;7.012;2023-02-22T09:13:44;100798.72;;;15.89;100.00
19553;BME280;9420;50.876;7.012;2023-02-22T09:16:11;100801.03;;;16.30;100.00
19553;BME280;9420;50.876;7.012;2023-02-22T09:18:39;100790.25;;;16.33;100.00
19553;BME280;9420;50.876;7.012;2023-02-22T09:21:07;100791.81;;;16.37;100.00
19553;BME280;9420;50.876;7.012;2023-02-22T09:23:34;100790.66;;;16.25;100.00
19553;BME280;9420;50.876;7.012;2023-02-22T09:26:01;100785.28;;;16.77;100.00
19553;BME280;9420;50.876;7.012;2023-02-22T09:28:28;100785.84;;;17.14;100.00
19553;BME280;9420;50.876;7.012;2023-02-22T09:30:55;100782.59;;;17.25;100.00
19553;BME280;9420;50.876;7.012;2023-02-22T09:33:22;100780.53;;;17.14;100.00
19553;BME280;9420;50.876;7.012;2023-02-22T09:35:52;100788.22;;;17.03;100.00
19553;BME280;9420;50.876;7.012;2023-02-22T09:38:22;100779.59;;;17.15;100.00
19553;BME280;9420;50.876;7.012;2023-02-22T09:40:56;100784.47;;;17.38;99.99
19553;BME280;9420;50.876;7.012;2023-02-22T09:43:43;100782.75;;;17.37;100.00
19553;BME280;9420;50.876;7.012;2023-02-22T09:46:25;100782.75;;;17.37;99.02
19553;BME280;9420;50.876;7.012;2023-02-22T09:49:02;100783.28;;;17.60;98.41
19553;BME280;9420;50.876;7.012;2023-02-22T09:51:40;100782.25;;;17.46;98.64
19553;BME280;9420;50.876;7.012;2023-02-22T09:54:18;100773.84;;;17.70;98.26
19553;BME280;9420;50.876;7.012;2023-02-22T09:56:50;100771.00;;;18.02;96.63
19553;BME280;9420;50.876;7.012;2023-02-22T09:59:26;100782.66;;;17.86;96.40
19553;BME280;9420;50.876;7.012;2023-02-22T10:02:04;100775.22;;;18.20;96.17
19553;BME280;9420;50.876;7.012;2023-02-22T10:04:45;100761.06;;;18.34;94.56
19553;BME280;9420;50.876;7.012;2023-02-22T10:07:30;100756.22;;;18.41;95.17
19553;BME280;9420;50.876;7.012;2023-02-22T10:09:59;100757.28;;;18.94;92.13
19553;BME280;9420;50.876;7.012;2023-02-22T10:12:41;100753.22;;;18.47;92.11
19553;BME280;9420;50.876;7.012;2023-02-22T10:15:41;100749.25;;;19.37;88.04
19553;BME280;9420;50.876;7.012;2023-02-22T10:19:01;100744.16;;;18.77;92.30
19553;BME280;9420;50.876;7.012;2023-02-22T10:25:21;100747.66;;;18.36;93.32
19553;BME280;9420;50.876;7.012;2023-02-22T10:27:58;100736.88;;;19.08;93.65
19553;BME280;9420;50.876;7.012;2023-02-22T10:30:31;100735.41;;;19.57;90.59
19553;BME280;9420;50.876;7.012;2023-02-22T10:33:11;100734.78;;;19.53;88.68
19553;BME280;9420;50.876;7.012;2023-02-22T10:35:40;100734.81;;;19.66;88.97
19553;BME280;9420;50.876;7.012;2023-02-22T10:38:18;100728.97;;;19.86;86.31
19553;BME280;9420;50.876;7.012;2023-02-22T10:40:52;100728.44;;;19.81;89.06
19553;BME280;9420;50.876;7.012;2023-02-22T10:43:20;100722.28;;;19.93;88.31
19553;BME280;9420;50.876;7.012;2023-02-22T10:45:51;100728.59;;;20.17;86.30
19553;BME280;9420;50.876;7.012;2023-02-22T10:48:23;100717.41;;;20.63;84.94
19553;BME280;9420;50.876;7.012;2023-02-22T10:50:57;100719.03;;;21.14;79.87
19553;BME280;9420;50.876;7.012;2023-02-22T10:53:27;100711.22;;;20.49;83.05
19553;BME280;9420;50.876;7.012;2023-02-22T10:56:10;100720.84;;;20.27;84.41
19553;BME280;9420;50.876;7.012;2023-02-22T10:58:45;100718.06;;;20.53;79.69
19553;BME280;9420;50.876;7.012;2023-02-22T11:01:24;100709.38;;;20.63;77.33
19553;BME280;9420;50.876;7.012;2023-02-22T11:04:02;100708.09;;;21.17;76.33
19553;BME280;9420;50.876;7.012;2023-02-22T11:06:32;100707.66;;;21.23;75.93
19553;BME280;9420;50.876;7.012;2023-02-22T11:09:12;100699.03;;;21.54;75.53
19553;BME280;9420;50.876;7.012;2023-02-22T11:11:44;100694.91;;;20.78;76.64
19553;BME280;9420;50.876;7.012;2023-02-22T11:14:28;100691.94;;;20.44;77.66
19553;BME280;9420;50.876;7.012;2023-02-22T11:16:57;100681.53;;;21.14;75.54
19553;BME280;9420;50.876;7.012;2023-02-22T11:19:28;100690.44;;;21.38;73.67
19553;BME280;9420;50.876;7.012;2023-02-22T11:22:09;100690.41;;;21.85;71.03
19553;BME280;9420;50.876;7.012;2023-02-22T11:24:46;100680.19;;;22.58;68.26
19553;BME280;9420;50.876;7.012;2023-02-22T11:27:30;100669.06;;;22.74;68.90
19553;BME280;9420;50.876;7.012;2023-02-22T11:30:26;100672.72;;;22.95;64.31
19553;BME280;9420;50.876;7.012;2023-02-22T11:32:57;100671.00;;;22.94;62.19
19553;BME280;9420;50.876;7.012;2023-02-22T11:35:49;100668.34;;;23.26;63.99
19553;BME280;9420;50.876;7.012;2023-02-22T11:38:21;100676.63;;;22.69;62.45
19553;BME280;9420;50.876;7.012;2023-02-22T11:41:12;100667.75;;;23.33;59.10
19553;BME280;9420;50.876;7.012;2023-02-22T11:43:46;100659.91;;;23.30;58.15
19553;BME280;9420;50.876;7.012;2023-02-22T11:46:17;100663.72;;;23.59;59.40
19553;BME280;9420;50.876;7.012;2023-02-22T11:48:56;100655.94;;;23.14;58.02
19553;BME280;9420;50.876;7.012;2023-02-22T11:51:44;100658.13;;;24.04;55.98
19553;BME280;9420;50.876;7.012;2023-02-22T11:54:50;100652.59;;;23.85;55.15
19553;BME280;9420;50.876;7.012;2023-02-22T11:57:38;100652.00;;;24.02;55.34
19553;BME280;9420;50.876;7.012;2023-02-22T12:00:22;100645.63;;;24.03;54.22
19553;BME280;9420;50.876;7.012;2023-02-22T12:03:26;100648.38;;;24.33;53.63
19553;BME280;9420;50.876;7.012;2023-02-22T12:06:26;100649.09;;;24.35;52.26
19553;BME280;9420;50.876;7.012;2023-02-22T12:09:09;100644.09;;;24.21;52.50
19553;BME280;9420;50.876;7.012;2023-02-22T12:11:50;100629.38;;;24.25;51.95
19553;BME280;9420;50.876;7.012;2023-02-22T12:14:29;100641.97;;;23.62;53.01
19553;BME280;9420;50.876;7.012;2023-02-22T12:17:21;100639.34;;;23.51;52.88
19553;BME280;9420;50.876;7.012;2023-02-22T12:19:59;100648.53;;;23.69;55.14
19553;BME280;9420;50.876;7.012;2023-02-22T12:22:32;100644.31;;;23.35;55.28
19553;BME280;9420;50.876;7.012;2023-02-22T12:25:04;100647.22;;;23.32;55.34
19553;BME280;9420;50.876;7.012;2023-02-22T12:27:39;100645.69;;;23.19;55.45
19553;BME280;9420;50.876;7.012;2023-02-22T12:30:14;100643.00;;;23.19;55.93
19553;BME280;9420;50.876;7.012;2023-02-22T12:32:50;100648.84;;;22.59;55.07
19553;BME280;9420;50.876;7.012;2023-02-22T12:35:22;100645.41;;;22.35;56.57
19553;BME280;9420;50.876;7.012;2023-02-22T12:38:00;100640.28;;;22.43;57.46
19553;BME280;9420;50.876;7.012;2023-02-22T12:40:36;100637.84;;;22.18;56.48
19553;BME280;9420;50.876;7.012;2023-02-22T12:43:17;100640.59;;;21.94;57.75
19553;BME280;9420;50.876;7.012;2023-02-22T12:45:56;100634.63;;;22.01;58.91
19553;BME280;9420;50.876;7.012;2023-02-22T12:48:39;100640.25;;;22.54;57.82
19553;BME280;9420;50.876;7.012;2023-02-22T12:51:23;100633.53;;;22.81;58.29
19553;BME280;9420;50.876;7.012;2023-02-22T12:54:03;100632.97;;;22.56;58.40
19553;BME280;9420;50.876;7.012;2023-02-22T12:56:35;100634.53;;;22.80;56.49
19553;BME280;9420;50.876;7.012;2023-02-22T12:59:16;100639.78;;;22.82;56.87
19553;BME280;9420;50.876;7.012;2023-02-22T13:01:52;100629.75;;;22.84;57.09
19553;BME280;9420;50.876;7.012;2023-02-22T13:04:22;100630.28;;;22.67;56.97
19553;BME280;9420;50.876;7.012;2023-02-22T13:07:10;100633.91;;;22.88;56.93
19553;BME280;9420;50.876;7.012;2023-02-22T13:10:22;100633.31;;;22.84;55.45
19553;BME280;9420;50.876;7.012;2023-02-22T13:13:03;100625.84;;;22.99;56.02
19553;BME280;9420;50.876;7.012;2023-02-22T13:15:44;100629.25;;;23.01;56.03
19553;BME280;9420;50.876;7.012;2023-02-22T13:18:25;100624.94;;;23.94;56.09
19553;BME280;9420;50.876;7.012;2023-02-22T13:21:03;100629.03;;;23.56;55.36
19553;BME280;9420;50.876;7.012;2023-02-22T13:23:46;100619.25;;;23.97;54.91
19553;BME280;9420;50.876;7.012;2023-02-22T13:26:24;100611.19;;;24.87;54.33
19553;BME280;9420;50.876;7.012;2023-02-22T13:28:59;100614.22;;;25.61;50.56